Strona główna
METAR-TAF:

METAR-TAF

Lotnisko :

Bahrajn, Bahrajn

Port lotniczy Bahrajn

Szerokość geograficzna: 26-16N, Długość geograficzna: 050-39E, wysokość: 2 m

Aktualna obserwacja pogody

Raport powstał 30 minut temu, godzina 17:30 UTC
Wiatr 11 kt od północny zachód
Temperatura 18°C
Wilgotność 56%
Ciśnienie 1016 hPa
Widzialność 10 km lub więcej
Mało chmury na wysokości 2500 ft

METAR: OBBI 171730Z 32011KT 9999 FEW025 18/09 Q1016 NOSIG

czas: 21:00 (18:00 UTC)

Prognoza

Raport powstał 1 godzina i 0 minut temu, godzina 17:00 UTC
Prognoza ważna od 17 godzina 18 UTC do 19 godzina 00 UTC
Wiatr 10 kt od północny zachód
Widzialność 10 km lub więcej
Mało chmury na wysokości 3000 ft
Stopniowe zmiany
od 18 godzina 15 UTC do 18 godzina 17 UTC
Wiatr 7 kt od wschodnio-południowy wschód

TAF: OBBI 171700Z 1718/1900 32010KT 9999 FEW030 BECMG 1815/1817 12007KT

Obserwacja i prognoza pogody dla ponad 4000 lotnisk (raport METAR i TAF).

Dostępne stacje oznaczono żółtymi i czerwonymi punktami na mapie.

Najedź kursorem aby zobaczyć nazwę stacji.

Kliknij aby zobaczyć obserwacje i prognozy pogody.

Aby zmienić mapę: kliknij na zielony przycisk z czarnym krzyżykiem, aby powiększyć; na zielony przycisk z myślnikiem, aby pomniejszyć; na zielone strzałki, aby przejść do map sąsiednich.


METAR-TAF: